AFR1256 EHAM-LFPO
Flight info
| Callsign | AFR1256 |
|---|---|
| Flight time | N/A |
| Altitude | 29000 |
| Route | WOODY N872 NIK UY131 NILEM DCT MOPIL |
| Aircraft | A320/M-SDE3FGHIRWY/LB1 |
Departure
| Time | 2026-04-29 12:25 |
|---|---|
| Airport | Amsterdam Airport Schiphol (EHAM) |
Arrival
| Time | N/A |
|---|---|
| Airport | Paris-Orly Airport (LFPO) |
| Time | Latitude | Longitude | Altitude | Speed | Heading |
|---|---|---|---|---|---|
| 2026-04-29 11:56 | 52.31204 | 4.77376 | -3 ft | 0 kts | 182° |
| 2026-04-29 12:08 | 52.31205 | 4.77376 | -3 ft | 0 kts | 182° |
| 2026-04-29 12:09 | 52.31216 | 4.77377 | -3 ft | 2 kts | 182° |
| 2026-04-29 12:09 | 52.31232 | 4.77377 | -3 ft | 2 kts | 182° |
| 2026-04-29 12:09 | 52.31247 | 4.77379 | -3 ft | 2 kts | 182° |
| 2026-04-29 12:09 | 52.31261 | 4.77380 | -3 ft | 2 kts | 182° |
| 2026-04-29 12:10 | 52.31273 | 4.77380 | -3 ft | 0 kts | 182° |
| 2026-04-29 12:10 | 52.31284 | 4.77377 | -3 ft | 2 kts | 139° |
| 2026-04-29 12:10 | 52.31290 | 4.77362 | -3 ft | 0 kts | 97° |
| 2026-04-29 12:10 | 52.31290 | 4.77351 | -3 ft | 1 kts | 92° |
| 2026-04-29 12:11 | 52.31290 | 4.77349 | -3 ft | 0 kts | 93° |
| 2026-04-29 12:13 | 52.31290 | 4.77350 | -3 ft | 0 kts | 93° |
| 2026-04-29 12:13 | 52.31290 | 4.77356 | -3 ft | 1 kts | 94° |
| 2026-04-29 12:13 | 52.31287 | 4.77409 | -3 ft | 7 kts | 98° |
| 2026-04-29 12:13 | 52.31283 | 4.77523 | -3 ft | 11 kts | 92° |
| 2026-04-29 12:14 | 52.31301 | 4.77635 | -3 ft | 10 kts | 40° |
| 2026-04-29 12:14 | 52.31370 | 4.77657 | -3 ft | 10 kts | 359° |
| 2026-04-29 12:14 | 52.31451 | 4.77639 | -3 ft | 13 kts | 337° |
| 2026-04-29 12:14 | 52.31529 | 4.77528 | -3 ft | 17 kts | 313° |
| 2026-04-29 12:15 | 52.31579 | 4.77345 | -3 ft | 19 kts | 269° |
| 2026-04-29 12:15 | 52.31569 | 4.77107 | -3 ft | 22 kts | 266° |
| 2026-04-29 12:15 | 52.31560 | 4.76843 | -3 ft | 24 kts | 266° |
| 2026-04-29 12:15 | 52.31551 | 4.76567 | -3 ft | 24 kts | 268° |
| 2026-04-29 12:16 | 52.31542 | 4.76298 | -3 ft | 22 kts | 266° |
| 2026-04-29 12:16 | 52.31534 | 4.76059 | -2 ft | 19 kts | 267° |
| 2026-04-29 12:16 | 52.31527 | 4.75847 | -2 ft | 18 kts | 267° |
| 2026-04-29 12:16 | 52.31517 | 4.75614 | -2 ft | 22 kts | 266° |
| 2026-04-29 12:17 | 52.31507 | 4.75344 | -1 ft | 25 kts | 268° |
| 2026-04-29 12:17 | 52.31500 | 4.75056 | -2 ft | 24 kts | 268° |
| 2026-04-29 12:17 | 52.31490 | 4.74777 | -1 ft | 24 kts | 266° |
| 2026-04-29 12:17 | 52.31480 | 4.74503 | -1 ft | 24 kts | 266° |
| 2026-04-29 12:18 | 52.31504 | 4.74301 | -2 ft | 16 kts | 332° |
| 2026-04-29 12:18 | 52.31613 | 4.74300 | -2 ft | 15 kts | 3° |
| 2026-04-29 12:18 | 52.31724 | 4.74310 | -2 ft | 16 kts | 3° |
| 2026-04-29 12:18 | 52.31850 | 4.74320 | -3 ft | 19 kts | 3° |
| 2026-04-29 12:19 | 52.31992 | 4.74329 | -3 ft | 20 kts | 347° |
| 2026-04-29 12:19 | 52.32034 | 4.74141 | -3 ft | 20 kts | 274° |
| 2026-04-29 12:19 | 52.32042 | 4.73885 | -3 ft | 24 kts | 273° |
| 2026-04-29 12:19 | 52.32051 | 4.73586 | -3 ft | 28 kts | 275° |
| 2026-04-29 12:20 | 52.32115 | 4.73320 | -3 ft | 25 kts | 317° |
| 2026-04-29 12:20 | 52.32254 | 4.73121 | -3 ft | 27 kts | 319° |
| 2026-04-29 12:20 | 52.32398 | 4.72917 | -3 ft | 27 kts | 321° |
| 2026-04-29 12:20 | 52.32539 | 4.72720 | -2 ft | 25 kts | 320° |
| 2026-04-29 12:21 | 52.32672 | 4.72528 | -2 ft | 25 kts | 319° |
| 2026-04-29 12:21 | 52.32791 | 4.72314 | -2 ft | 25 kts | 313° |
| 2026-04-29 12:21 | 52.32898 | 4.72106 | -2 ft | 22 kts | 309° |
| 2026-04-29 12:21 | 52.32999 | 4.71922 | -2 ft | 20 kts | 313° |
| 2026-04-29 12:22 | 52.33095 | 4.71744 | -2 ft | 21 kts | 311° |
| 2026-04-29 12:22 | 52.33146 | 4.71540 | -3 ft | 17 kts | 256° |
| 2026-04-29 12:22 | 52.33152 | 4.71379 | -3 ft | 15 kts | 316° |
| 2026-04-29 12:22 | 52.33223 | 4.71253 | -3 ft | 14 kts | 311° |
| 2026-04-29 12:23 | 52.33289 | 4.71134 | -3 ft | 10 kts | 312° |
| 2026-04-29 12:23 | 52.33299 | 4.71114 | -3 ft | 0 kts | 311° |
| 2026-04-29 12:23 | 52.33310 | 4.71094 | -3 ft | 7 kts | 311° |
| 2026-04-29 12:23 | 52.33372 | 4.70981 | -3 ft | 13 kts | 310° |
| 2026-04-29 12:24 | 52.33418 | 4.70936 | -3 ft | 0 kts | 2° |
| 2026-04-29 12:24 | 52.33520 | 4.70944 | -3 ft | 45 kts | 4° |
| 2026-04-29 12:24 | 52.34161 | 4.71004 | -3 ft | 135 kts | 4° |
| 2026-04-29 12:25 | 52.35241 | 4.71104 | 467 ft | 168 kts | 10° |
| 2026-04-29 12:25 | 52.36429 | 4.71235 | 1328 ft | 180 kts | 11° |
| 2026-04-29 12:25 | 52.39091 | 4.71536 | 3073 ft | 213 kts | 11° |
| 2026-04-29 12:26 | 52.40546 | 4.71975 | 4018 ft | 217 kts | 31° |
| 2026-04-29 12:26 | 52.41703 | 4.73432 | 5044 ft | 213 kts | 56° |
| 2026-04-29 12:26 | 52.42323 | 4.75563 | 5779 ft | 210 kts | 80° |
| 2026-04-29 12:26 | 52.42279 | 4.77916 | 6216 ft | 213 kts | 104° |
| 2026-04-29 12:27 | 52.41535 | 4.80054 | 6860 ft | 226 kts | 129° |
| 2026-04-29 12:27 | 52.40182 | 4.81439 | 7721 ft | 246 kts | 159° |
| 2026-04-29 12:27 | 52.38462 | 4.81652 | 8723 ft | 257 kts | 176° |
| 2026-04-29 12:27 | 52.36696 | 4.81854 | 9700 ft | 258 kts | 167° |
| 2026-04-29 12:28 | 52.34940 | 4.82286 | 10644 ft | 263 kts | 166° |
| 2026-04-29 12:28 | 52.33117 | 4.82746 | 11565 ft | 269 kts | 166° |
| 2026-04-29 12:28 | 52.31244 | 4.83262 | 12139 ft | 288 kts | 166° |
| 2026-04-29 12:28 | 52.29186 | 4.83843 | 12597 ft | 311 kts | 166° |
| 2026-04-29 12:29 | 52.26997 | 4.84463 | 12988 ft | 333 kts | 166° |
| 2026-04-29 12:29 | 52.24590 | 4.84820 | 13340 ft | 358 kts | 176° |
| 2026-04-29 12:29 | 52.22066 | 4.84742 | 13911 ft | 369 kts | 177° |
| 2026-04-29 12:29 | 52.19503 | 4.84676 | 14632 ft | 374 kts | 177° |
| 2026-04-29 12:30 | 52.16909 | 4.84617 | 15341 ft | 378 kts | 178° |
| 2026-04-29 12:30 | 52.14274 | 4.84558 | 16062 ft | 382 kts | 178° |
| 2026-04-29 12:30 | 52.11607 | 4.84501 | 16758 ft | 387 kts | 178° |
| 2026-04-29 12:30 | 52.08915 | 4.84445 | 17396 ft | 391 kts | 178° |
| 2026-04-29 12:31 | 52.06191 | 4.84388 | 18046 ft | 395 kts | 178° |
| 2026-04-29 12:31 | 52.03455 | 4.84293 | 18691 ft | 399 kts | 182° |
| 2026-04-29 12:31 | 52.00757 | 4.83262 | 19294 ft | 406 kts | 201° |
| 2026-04-29 12:31 | 51.98175 | 4.81310 | 19856 ft | 411 kts | 205° |
| 2026-04-29 12:32 | 51.95607 | 4.79271 | 20451 ft | 415 kts | 204° |
| 2026-04-29 12:32 | 51.93005 | 4.77217 | 20981 ft | 419 kts | 204° |
| 2026-04-29 12:32 | 51.90386 | 4.75161 | 21570 ft | 422 kts | 204° |
| 2026-04-29 12:32 | 51.87770 | 4.73113 | 22101 ft | 425 kts | 204° |
| 2026-04-29 12:33 | 51.85092 | 4.71019 | 22602 ft | 429 kts | 204° |
| 2026-04-29 12:33 | 51.82412 | 4.68928 | 23130 ft | 432 kts | 204° |
| 2026-04-29 12:33 | 51.79697 | 4.66813 | 23615 ft | 436 kts | 204° |
| 2026-04-29 12:33 | 51.76963 | 4.64686 | 24088 ft | 439 kts | 203° |
| 2026-04-29 12:34 | 51.74224 | 4.62558 | 24586 ft | 442 kts | 203° |
| 2026-04-29 12:34 | 51.71464 | 4.60416 | 25065 ft | 445 kts | 203° |
| 2026-04-29 12:34 | 51.68662 | 4.58244 | 25527 ft | 448 kts | 203° |
| 2026-04-29 12:34 | 51.65848 | 4.56067 | 25954 ft | 451 kts | 203° |
| 2026-04-29 12:35 | 51.63023 | 4.53887 | 26378 ft | 454 kts | 202° |
| 2026-04-29 12:35 | 51.60178 | 4.51694 | 26824 ft | 457 kts | 202° |
| 2026-04-29 12:35 | 51.57326 | 4.49500 | 27241 ft | 459 kts | 202° |
| 2026-04-29 12:35 | 51.54414 | 4.47262 | 27639 ft | 463 kts | 202° |
| 2026-04-29 12:36 | 51.51512 | 4.45035 | 28028 ft | 465 kts | 202° |
| 2026-04-29 12:36 | 51.48624 | 4.42822 | 28390 ft | 469 kts | 202° |
| 2026-04-29 12:36 | 51.45671 | 4.40562 | 28807 ft | 470 kts | 202° |
| 2026-04-29 12:36 | 51.42702 | 4.38293 | 29167 ft | 473 kts | 202° |
| 2026-04-29 12:37 | 51.39767 | 4.36053 | 29338 ft | 472 kts | 202° |
| 2026-04-29 12:37 | 51.33859 | 4.31552 | 29363 ft | 471 kts | 201° |
| 2026-04-29 12:38 | 51.27952 | 4.27065 | 29366 ft | 471 kts | 201° |
| 2026-04-29 12:38 | 51.22065 | 4.22606 | 29363 ft | 470 kts | 201° |
| 2026-04-29 12:39 | 51.16024 | 4.18816 | 29368 ft | 463 kts | 187° |
| 2026-04-29 12:39 | 51.09702 | 4.17867 | 29363 ft | 457 kts | 177° |
| 2026-04-29 12:40 | 51.03381 | 4.17400 | 29354 ft | 456 kts | 178° |
| 2026-04-29 12:40 | 50.97071 | 4.16923 | 29343 ft | 456 kts | 178° |
| 2026-04-29 12:41 | 50.90757 | 4.16436 | 29332 ft | 454 kts | 178° |
| 2026-04-29 12:41 | 50.84453 | 4.15952 | 29334 ft | 454 kts | 178° |
| 2026-04-29 12:42 | 50.78168 | 4.15478 | 29334 ft | 454 kts | 178° |
| 2026-04-29 12:42 | 50.71885 | 4.15011 | 29325 ft | 453 kts | 178° |
| 2026-04-29 12:43 | 50.65639 | 4.14551 | 29332 ft | 453 kts | 178° |
| 2026-04-29 12:43 | 50.59374 | 4.14087 | 29329 ft | 452 kts | 178° |
| 2026-04-29 12:44 | 50.53081 | 4.13621 | 29329 ft | 452 kts | 178° |
| 2026-04-29 12:44 | 50.46856 | 4.13160 | 29331 ft | 451 kts | 178° |
| 2026-04-29 12:45 | 50.40602 | 4.12698 | 29320 ft | 450 kts | 178° |
| 2026-04-29 12:45 | 50.34369 | 4.12239 | 29318 ft | 450 kts | 179° |
| 2026-04-29 12:46 | 50.28141 | 4.11782 | 29312 ft | 449 kts | 179° |
| 2026-04-29 12:46 | 50.21890 | 4.11314 | 29294 ft | 449 kts | 179° |
| 2026-04-29 12:47 | 50.15686 | 4.10851 | 29296 ft | 449 kts | 179° |
| 2026-04-29 12:47 | 50.09479 | 4.10382 | 29291 ft | 448 kts | 179° |
| 2026-04-29 12:48 | 50.03275 | 4.09910 | 29269 ft | 445 kts | 179° |
| 2026-04-29 12:48 | 50.00238 | 4.09678 | 29124 ft | 434 kts | 179° |
| 2026-04-29 12:48 | 49.97251 | 4.09450 | 28910 ft | 422 kts | 179° |
| 2026-04-29 12:48 | 49.94386 | 4.09233 | 28693 ft | 411 kts | 179° |
| 2026-04-29 12:49 | 49.91554 | 4.09019 | 28382 ft | 402 kts | 179° |
| 2026-04-29 12:49 | 49.88776 | 4.08811 | 27868 ft | 399 kts | 179° |
| 2026-04-29 12:49 | 49.86017 | 4.08605 | 27295 ft | 397 kts | 179° |
| 2026-04-29 12:49 | 49.83287 | 4.08399 | 26832 ft | 393 kts | 178° |
| 2026-04-29 12:50 | 49.80580 | 4.08197 | 26196 ft | 393 kts | 179° |
| 2026-04-29 12:50 | 49.77865 | 4.07994 | 25571 ft | 393 kts | 179° |
| 2026-04-29 12:50 | 49.75122 | 4.07789 | 25022 ft | 391 kts | 179° |
| 2026-04-29 12:50 | 49.72428 | 4.07588 | 24434 ft | 391 kts | 179° |
| 2026-04-29 12:51 | 49.69752 | 4.07387 | 23950 ft | 387 kts | 179° |
| 2026-04-29 12:51 | 49.67072 | 4.07187 | 23452 ft | 384 kts | 179° |
| 2026-04-29 12:51 | 49.64410 | 4.06989 | 22875 ft | 384 kts | 179° |
| 2026-04-29 12:51 | 49.61746 | 4.06791 | 22364 ft | 382 kts | 180° |
| 2026-04-29 12:52 | 49.59131 | 4.06596 | 21914 ft | 378 kts | 180° |
| 2026-04-29 12:52 | 49.56533 | 4.06403 | 21393 ft | 377 kts | 180° |
| 2026-04-29 12:52 | 49.53905 | 4.06208 | 20922 ft | 374 kts | 180° |
| 2026-04-29 12:52 | 49.51320 | 4.06017 | 20410 ft | 373 kts | 180° |
| 2026-04-29 12:53 | 49.48748 | 4.05826 | 19948 ft | 370 kts | 181° |
| 2026-04-29 12:53 | 49.46213 | 4.05639 | 19517 ft | 366 kts | 181° |
| 2026-04-29 12:53 | 49.43691 | 4.05453 | 19038 ft | 364 kts | 181° |
| 2026-04-29 12:53 | 49.41180 | 4.05104 | 18589 ft | 362 kts | 193° |
| 2026-04-29 12:54 | 49.38911 | 4.03498 | 18121 ft | 358 kts | 219° |
| 2026-04-29 12:54 | 49.37320 | 4.00678 | 17667 ft | 351 kts | 244° |
| 2026-04-29 12:54 | 49.36333 | 3.97304 | 17222 ft | 348 kts | 246° |
| 2026-04-29 12:54 | 49.35300 | 3.93989 | 16768 ft | 346 kts | 245° |
| 2026-04-29 12:55 | 49.34246 | 3.90689 | 16296 ft | 345 kts | 245° |
| 2026-04-29 12:55 | 49.33179 | 3.87398 | 15817 ft | 344 kts | 244° |
| 2026-04-29 12:55 | 49.32124 | 3.84178 | 15377 ft | 342 kts | 244° |
| 2026-04-29 12:55 | 49.31059 | 3.80950 | 14949 ft | 339 kts | 243° |
| 2026-04-29 12:56 | 49.29997 | 3.77748 | 14497 ft | 338 kts | 243° |
| 2026-04-29 12:56 | 49.28937 | 3.74564 | 14032 ft | 337 kts | 243° |
| 2026-04-29 12:56 | 49.27874 | 3.71375 | 13617 ft | 334 kts | 243° |
| 2026-04-29 12:56 | 49.26903 | 3.68204 | 13161 ft | 333 kts | 251° |
| 2026-04-29 12:57 | 49.26348 | 3.64777 | 12690 ft | 333 kts | 258° |
| 2026-04-29 12:57 | 49.25866 | 3.61327 | 12244 ft | 332 kts | 258° |
| 2026-04-29 12:57 | 49.25379 | 3.57900 | 11834 ft | 329 kts | 258° |
| 2026-04-29 12:57 | 49.24892 | 3.54488 | 11401 ft | 328 kts | 258° |
| 2026-04-29 12:58 | 49.24405 | 3.51078 | 11141 ft | 330 kts | 257° |
| 2026-04-29 12:58 | 49.23915 | 3.47660 | 11095 ft | 331 kts | 257° |
| 2026-04-29 12:58 | 49.23421 | 3.44217 | 11097 ft | 332 kts | 257° |
| 2026-04-29 12:58 | 49.22924 | 3.40767 | 11093 ft | 331 kts | 257° |
| 2026-04-29 12:59 | 49.22430 | 3.37342 | 11103 ft | 330 kts | 257° |
| 2026-04-29 12:59 | 49.21934 | 3.33913 | 11099 ft | 330 kts | 256° |
| 2026-04-29 12:59 | 49.21442 | 3.30518 | 11100 ft | 329 kts | 256° |
| 2026-04-29 12:59 | 49.20944 | 3.27087 | 11106 ft | 329 kts | 257° |
| 2026-04-29 13:00 | 49.20451 | 3.23699 | 11101 ft | 329 kts | 256° |
| 2026-04-29 13:00 | 49.19957 | 3.20309 | 11099 ft | 330 kts | 256° |
| 2026-04-29 13:00 | 49.19454 | 3.16869 | 11103 ft | 329 kts | 256° |
| 2026-04-29 13:00 | 49.18955 | 3.13460 | 11098 ft | 330 kts | 256° |
| 2026-04-29 13:01 | 49.18457 | 3.10074 | 11091 ft | 330 kts | 256° |
| 2026-04-29 13:01 | 49.17952 | 3.06643 | 11098 ft | 329 kts | 256° |
| 2026-04-29 13:01 | 49.17452 | 3.03248 | 11086 ft | 329 kts | 256° |
| 2026-04-29 13:01 | 49.16945 | 2.99822 | 11094 ft | 329 kts | 256° |
| 2026-04-29 13:02 | 49.16445 | 2.96444 | 11099 ft | 330 kts | 256° |
| 2026-04-29 13:02 | 49.15936 | 2.93012 | 11084 ft | 330 kts | 256° |
| 2026-04-29 13:02 | 49.15434 | 2.89636 | 11078 ft | 330 kts | 256° |
| 2026-04-29 13:02 | 49.14919 | 2.86180 | 11078 ft | 330 kts | 256° |
| 2026-04-29 13:03 | 49.14414 | 2.82803 | 11084 ft | 330 kts | 256° |
| 2026-04-29 13:03 | 49.13907 | 2.79417 | 11086 ft | 329 kts | 256° |
| 2026-04-29 13:03 | 49.13392 | 2.75979 | 11094 ft | 329 kts | 256° |
| 2026-04-29 13:03 | 49.12881 | 2.72581 | 11068 ft | 330 kts | 256° |
| 2026-04-29 13:04 | 49.12367 | 2.69174 | 11084 ft | 330 kts | 256° |
| 2026-04-29 13:04 | 49.11856 | 2.65793 | 11074 ft | 330 kts | 256° |
| 2026-04-29 13:04 | 49.11340 | 2.62383 | 11081 ft | 329 kts | 256° |
| 2026-04-29 13:04 | 49.10875 | 2.59041 | 11085 ft | 320 kts | 262° |
| 2026-04-29 13:05 | 49.10779 | 2.57037 | 11087 ft | 318 kts | 269° |